Time;durP1;ratioP1;P1;durP2;ratioP2;P2;SDS_P1;SDS_P2;PMS_P1;PMS_P2;Temp;Humidity;BMP_temperature;BMP_pressure;BME280_temperature;BME280_humidity;BME280_pressure;Samples;Min_cycle;Max_cycle;Signal;HPM_P1;HPM_P2
2022/02/27 00:01:12;;;;;;;41.30;22.50;;;;;;;3.55;60.27;100666.73;231829;1230;139122;-63
2022/02/27 00:06:16;;;;;;;43.40;21.70;;;;;;;3.44;60.48;100670.30;231725;1229;140038;-62
2022/02/27 00:11:20;;;;;;;40.30;21.30;;;;;;;3.35;60.49;100674.05;231813;1228;139418;-63
2022/02/27 00:16:23;;;;;;;43.20;21.80;;;;;;;3.27;60.47;100677.42;231821;1229;138987;-61
2022/02/27 00:21:26;;;;;;;46.10;22.50;;;;;;;3.19;60.68;100684.32;231693;1229;139475;-61
2022/02/27 00:26:29;;;;;;;41.80;22.10;;;;;;;3.13;60.74;100683.83;231792;1230;139543;-65
2022/02/27 00:31:32;;;;;;;38.20;20.50;;;;;;;3.08;61.01;100689.11;231818;1229;140759;-65
2022/02/27 00:36:37;;;;;;;39.90;21.80;;;;;;;3.01;60.90;100685.98;231764;1229;140203;-62
2022/02/27 00:41:40;;;;;;;46.20;22.50;;;;;;;2.96;60.91;100687.58;231787;1228;139216;-63
2022/02/27 00:46:43;;;;;;;42.90;23.10;;;;;;;2.98;60.97;100688.27;231737;1230;139239;-63
2022/02/27 00:51:46;;;;;;;43.30;22.10;;;;;;;3.01;61.21;100686.16;231906;1229;139348;-62
2022/02/27 00:56:49;;;;;;;39.40;22.10;;;;;;;3.02;61.18;100687.20;231784;1228;139939;-60
2022/02/27 01:01:52;;;;;;;40.90;22.70;;;;;;;3.03;61.21;100684.04;231825;1228;139732;-61
2022/02/27 01:06:55;;;;;;;43.50;23.30;;;;;;;3.02;61.31;100692.12;231773;1230;139030;-60
2022/02/27 01:11:58;;;;;;;41.60;21.60;;;;;;;3.03;61.55;100693.16;231821;1228;139787;-60
2022/02/27 01:17:05;;;;;;;41.20;21.50;;;;;;;3.06;61.42;100695.27;231792;1228;139393;-61
2022/02/27 01:22:08;;;;;;;40.20;22.10;;;;;;;3.01;61.46;100700.54;231826;1229;139850;-61
2022/02/27 01:27:12;;;;;;;40.30;21.90;;;;;;;2.97;61.50;100698.80;231884;1229;140144;-60
2022/02/27 01:32:15;;;;;;;40.10;23.50;;;;;;;2.93;61.68;100700.58;231816;1229;138826;-59
2022/02/27 01:37:19;;;;;;;38.00;21.90;;;;;;;2.90;61.68;100697.42;231796;1229;140471;-61
2022/02/27 01:42:23;;;;;;;38.60;21.20;;;;;;;2.87;61.68;100695.52;231816;1229;138802;-60
2022/02/27 01:47:26;;;;;;;39.60;21.80;;;;;;;2.87;61.84;100699.89;231802;1228;140110;-59
2022/02/27 01:52:30;;;;;;;41.80;24.00;;;;;;;2.88;62.03;100696.39;231798;1230;139217;-60
2022/02/27 01:57:33;;;;;;;41.30;22.40;;;;;;;2.93;62.10;100695.48;231898;1228;139469;-61
2022/02/27 02:02:36;;;;;;;44.80;24.80;;;;;;;2.96;62.00;100696.70;231823;1229;139893;-61
2022/02/27 02:07:41;;;;;;;44.00;23.40;;;;;;;2.98;61.92;100700.72;231735;1228;139249;-60
2022/02/27 02:12:44;;;;;;;40.90;21.10;;;;;;;3.01;62.16;100701.94;231752;1229;139059;-61
2022/02/27 02:17:47;;;;;;;41.30;22.40;;;;;;;3.05;62.00;100700.52;231777;1229;139687;-61
2022/02/27 02:22:50;;;;;;;42.20;23.90;;;;;;;3.13;62.37;100702.05;231697;1229;139226;-62
2022/02/27 02:27:54;;;;;;;41.10;22.80;;;;;;;3.17;62.27;100699.59;231766;1229;139760;-62
2022/02/27 02:32:58;;;;;;;37.60;22.10;;;;;;;3.20;62.19;100702.02;231932;1228;139106;-61
2022/02/27 02:38:01;;;;;;;41.80;22.80;;;;;;;3.24;62.36;100705.68;231670;1229;139210;-59
2022/02/27 02:43:06;;;;;;;39.90;22.70;;;;;;;3.27;62.40;100709.88;231837;1228;138836;-60
2022/02/27 02:48:09;;;;;;;38.60;22.00;;;;;;;3.30;62.36;100709.68;231804;1229;142494;-59
2022/02/27 02:53:13;;;;;;;40.90;21.50;;;;;;;3.34;62.48;100709.66;231571;1229;140059;-60
2022/02/27 02:58:15;;;;;;;37.80;21.60;;;;;;;3.38;62.57;100709.11;231749;1229;138833;-63
2022/02/27 03:03:19;;;;;;;38.90;22.00;;;;;;;3.41;62.58;100713.84;231976;1229;138413;-63
2022/02/27 03:08:22;;;;;;;43.70;23.40;;;;;;;3.43;62.48;100713.30;231807;1229;140368;-65
2022/02/27 03:13:24;;;;;;;46.70;22.40;;;;;;;3.48;62.42;100714.84;231689;1229;140633;-61
2022/02/27 03:18:27;;;;;;;39.60;22.80;;;;;;;3.54;62.49;100720.60;231820;1228;139409;-61
2022/02/27 03:23:31;;;;;;;40.60;22.10;;;;;;;3.62;62.52;100723.37;231818;1229;139432;-63
2022/02/27 03:28:34;;;;;;;41.40;22.50;;;;;;;3.67;62.65;100728.06;231780;1228;138411;-60
2022/02/27 03:33:37;;;;;;;41.00;22.80;;;;;;;3.68;62.26;100726.99;231919;1229;139415;-62
2022/02/27 03:38:41;;;;;;;36.00;21.80;;;;;;;3.68;62.27;100728.23;231766;1229;138778;-62
2022/02/27 03:43:47;;;;;;;35.10;20.90;;;;;;;3.65;62.06;100726.31;231787;1229;139539;-62
2022/02/27 03:48:50;;;;;;;36.50;21.20;;;;;;;3.61;62.00;100728.97;231735;1228;138958;-61
2022/02/27 03:53:53;;;;;;;35.00;20.70;;;;;;;3.57;61.89;100739.17;231764;1228;139057;-61
2022/02/27 03:58:56;;;;;;;37.30;21.80;;;;;;;3.51;61.91;100741.86;231741;1228;138950;-61
2022/02/27 04:04:00;;;;;;;37.20;21.20;;;;;;;3.44;61.96;100741.00;231786;1228;139748;-61
2022/02/27 04:09:03;;;;;;;36.10;20.30;;;;;;;3.39;61.89;100742.27;231895;1228;139041;-60
2022/02/27 04:14:06;;;;;;;42.00;22.50;;;;;;;3.34;62.02;100741.95;231806;1228;138859;-61
2022/02/27 04:19:09;;;;;;;39.50;21.10;;;;;;;3.33;62.17;100740.72;231813;1228;139679;-61
2022/02/27 04:24:12;;;;;;;35.80;20.70;;;;;;;3.31;62.20;100741.60;231837;1228;139394;-61
2022/02/27 04:29:15;;;;;;;34.40;20.90;;;;;;;3.28;62.14;100740.38;231747;1228;139335;-61
2022/02/27 04:34:18;;;;;;;39.30;20.30;;;;;;;3.29;62.36;100738.11;231871;1228;140711;-62
2022/02/27 04:39:21;;;;;;;42.90;22.40;;;;;;;3.30;62.32;100736.01;231883;1228;138771;-60
2022/02/27 04:44:24;;;;;;;40.30;21.90;;;;;;;3.33;62.41;100739.14;231796;1228;139389;-61
2022/02/27 04:49:27;;;;;;;44.20;21.80;;;;;;;3.40;62.35;100737.88;231841;1228;140167;-61
2022/02/27 04:54:30;;;;;;;36.20;21.30;;;;;;;3.45;62.43;100735.57;231842;1228;140166;-59
2022/02/27 04:59:33;;;;;;;41.00;21.50;;;;;;;3.44;62.20;100742.25;231814;1228;139789;-60
2022/02/27 05:04:36;;;;;;;41.40;20.60;;;;;;;3.42;62.01;100744.17;231841;1228;139868;-60
2022/02/27 05:09:39;;;;;;;37.00;20.70;;;;;;;3.38;61.89;100745.95;231912;1228;138856;-61
2022/02/27 05:14:42;;;;;;;39.70;21.40;;;;;;;3.33;62.12;100750.70;231846;1227;139417;-58
2022/02/27 05:20:06;;;;;;;40.60;22.30;;;;;;;3.26;61.99;100753.03;231851;1228;141882;-61
2022/02/27 05:25:10;;;;;;;36.40;20.90;;;;;;;3.20;61.96;100762.52;231704;1228;139168;-59
2022/02/27 05:30:14;;;;;;;36.90;21.10;;;;;;;3.11;62.05;100762.91;231697;1228;140196;-59
2022/02/27 05:35:17;;;;;;;35.10;21.10;;;;;;;3.03;62.28;100767.85;231856;1228;139592;-62
2022/02/27 05:40:21;;;;;;;33.90;20.80;;;;;;;2.95;62.28;100770.68;231739;1229;139367;-64
2022/02/27 05:45:24;;;;;;;36.50;21.50;;;;;;;2.90;62.21;100774.38;231943;1228;139321;-61
2022/02/27 05:50:27;;;;;;;36.50;21.40;;;;;;;2.82;62.30;100781.23;231851;1228;139569;-59
2022/02/27 05:55:31;;;;;;;38.90;21.30;;;;;;;2.77;62.54;100786.33;231858;1228;138884;-61
2022/02/27 06:00:35;;;;;;;41.00;24.10;;;;;;;2.73;62.54;100797.21;231809;1228;139912;-60
2022/02/27 06:05:38;;;;;;;41.60;21.50;;;;;;;2.73;62.67;100801.06;231842;1228;141115;-59
2022/02/27 06:10:41;;;;;;;40.20;22.40;;;;;;;2.77;62.71;100805.43;231792;1228;140244;-59
2022/02/27 06:15:44;;;;;;;37.60;22.10;;;;;;;2.82;62.79;100805.27;231942;1228;139097;-60
2022/02/27 06:20:47;;;;;;;42.30;22.20;;;;;;;2.86;62.80;100812.08;231847;1228;139255;-61
2022/02/27 06:25:50;;;;;;;40.90;22.20;;;;;;;2.88;62.94;100818.73;231852;1228;140193;-60
2022/02/27 06:30:53;;;;;;;37.80;21.90;;;;;;;2.90;62.98;100828.02;231796;1228;139129;-60
2022/02/27 06:35:56;;;;;;;42.10;23.50;;;;;;;2.92;63.11;100832.75;231821;1228;138804;-60
2022/02/27 06:41:01;;;;;;;38.90;20.90;;;;;;;3.01;63.37;100833.79;231758;1228;138810;-59
2022/02/27 06:46:05;;;;;;;32.70;20.40;;;;;;;3.13;63.31;100839.36;231819;1228;138874;-63
2022/02/27 06:51:09;;;;;;;29.70;17.90;;;;;;;3.26;63.15;100839.32;231914;1228;139598;-65
2022/02/27 06:56:14;;;;;;;33.20;18.50;;;;;;;3.38;63.09;100841.74;231880;1228;138885;-60
2022/02/27 07:01:18;;;;;;;31.20;17.50;;;;;;;3.47;63.05;100850.83;231821;1228;139860;-62
2022/02/27 07:06:22;;;;;;;29.50;17.20;;;;;;;3.57;62.97;100852.37;231844;1227;138680;-63
2022/02/27 07:11:25;;;;;;;32.60;18.30;;;;;;;3.67;62.84;100853.89;231789;1228;139367;-61
2022/02/27 07:16:28;;;;;;;30.20;17.00;;;;;;;3.78;62.69;100856.48;231797;1228;139510;-62
2022/02/27 07:21:31;;;;;;;29.10;17.20;;;;;;;3.87;62.69;100858.36;231947;1228;138732;-64
2022/02/27 07:26:39;;;;;;;26.60;16.40;;;;;;;3.99;62.79;100858.13;231872;1227;138945;-59
2022/02/27 07:31:42;;;;;;;29.90;16.40;;;;;;;4.10;62.60;100858.06;231801;1228;138817;-64
2022/02/27 07:36:47;;;;;;;29.40;16.60;;;;;;;4.21;62.59;100856.23;231838;1228;139170;-60
2022/02/27 07:41:51;;;;;;;27.90;16.10;;;;;;;4.33;62.48;100851.92;231582;1228;139905;-61
2022/02/27 07:46:55;;;;;;;23.20;14.40;;;;;;;4.46;62.39;100846.20;231808;1228;139578;-62
2022/02/27 07:52:01;;;;;;;26.60;14.30;;;;;;;4.58;62.24;100849.98;231924;1227;139282;-62
2022/02/27 07:57:04;;;;;;;24.50;14.60;;;;;;;4.71;62.21;100842.83;231925;1228;138965;-61
2022/02/27 08:02:07;;;;;;;24.40;15.20;;;;;;;4.80;61.72;100844.86;231781;1228;139300;-61
2022/02/27 08:07:10;;;;;;;25.20;15.20;;;;;;;4.89;61.58;100837.73;231805;1228;138850;-60
2022/02/27 08:12:13;;;;;;;153.80;95.80;;;;;;;5.04;61.96;100844.10;231799;1228;139345;-59
2022/02/27 08:17:18;;;;;;;37.20;20.40;;;;;;;5.33;62.35;100845.36;231751;1228;139637;-59
2022/02/27 08:22:21;;;;;;;21.30;13.10;;;;;;;5.54;61.51;100843.70;231632;1228;138773;-60
2022/02/27 08:27:24;;;;;;;20.90;12.20;;;;;;;5.63;61.05;100841.48;231940;1228;138677;-62
2022/02/27 08:32:27;;;;;;;19.30;12.10;;;;;;;5.66;60.76;100837.91;231777;1228;138875;-61
2022/02/27 08:37:30;;;;;;;263.70;158.00;;;;;;;5.73;60.89;100840.48;231598;1228;138592;-63
2022/02/27 08:42:33;;;;;;;28.10;16.10;;;;;;;5.96;60.78;100839.83;231795;1228;140381;-61
2022/02/27 08:47:36;;;;;;;18.80;10.00;;;;;;;6.07;60.31;100839.86;231750;1228;138457;-61
2022/02/27 08:52:39;;;;;;;17.30;9.60;;;;;;;6.10;60.00;100834.70;231751;1228;139017;-61
2022/02/27 08:57:44;;;;;;;17.20;10.00;;;;;;;6.18;59.91;100836.87;231909;1228;138631;-64
2022/02/27 09:02:48;;;;;;;864.00;557.10;;;;;;;6.26;59.72;100835.16;231761;1227;139444;-64
2022/02/27 09:07:51;;;;;;;48.00;32.60;;;;;;;6.42;60.01;100833.31;231796;1228;141137;-65
2022/02/27 09:12:54;;;;;;;19.90;13.00;;;;;;;6.58;59.73;100827.43;231883;1227;139012;-64
2022/02/27 09:17:57;;;;;;;18.90;10.60;;;;;;;6.65;59.17;100831.53;231800;1228;141424;-63
2022/02/27 09:23:00;;;;;;;19.20;11.40;;;;;;;6.70;59.06;100826.86;231798;1228;139631;-63
2022/02/27 09:28:03;;;;;;;16.40;9.60;;;;;;;6.74;58.84;100825.91;231770;1228;139370;-62
2022/02/27 09:33:06;;;;;;;17.60;9.50;;;;;;;6.81;58.90;100827.52;231852;1228;139041;-62
2022/02/27 09:38:10;;;;;;;526.40;382.60;;;;;;;6.91;58.56;100824.02;231806;1227;138231;-62
2022/02/27 09:43:14;;;;;;;50.50;29.00;;;;;;;7.12;58.63;100820.63;231806;1228;138818;-62
2022/02/27 09:48:17;;;;;;;20.70;11.90;;;;;;;7.19;58.12;100814.49;231729;1228;139188;-66
2022/02/27 09:53:21;;;;;;;16.60;9.30;;;;;;;7.24;57.90;100805.92;231788;1228;139157;-68
2022/02/27 09:58:24;;;;;;;17.50;9.00;;;;;;;7.30;57.49;100799.77;231827;1228;139666;-67
2022/02/27 10:03:30;;;;;;;15.60;8.50;;;;;;;7.42;57.46;100802.02;231883;1228;139099;-62
2022/02/27 10:08:41;;;;;;;15.50;8.90;;;;;;;7.53;57.49;100800.20;231801;1228;139569;-65
2022/02/27 10:13:51;;;;;;;11.50;8.10;;;;;;;7.68;56.95;100797.92;231779;1228;140461;-61
2022/02/27 10:18:58;;;;;;;11.10;6.60;;;;;;;7.85;56.79;100791.73;231784;1228;138882;-60
2022/02/27 10:24:04;;;;;;;9.80;6.00;;;;;;;7.98;56.22;100782.42;231766;1228;138821;-58
2022/02/27 10:29:15;;;;;;;10.40;6.60;;;;;;;8.12;55.78;100776.77;231853;1228;139121;-60
2022/02/27 10:34:29;;;;;;;663.00;457.00;;;;;;;8.19;56.04;100769.52;231830;1228;139132;-60
2022/02/27 10:39:55;;;;;;;22.20;13.60;;;;;;;8.20;55.44;100759.97;231935;1227;142515;-59
2022/02/27 10:45:01;;;;;;;11.70;6.90;;;;;;;8.02;54.45;100752.27;231343;1228;139774;-59
2022/02/27 10:50:10;;;;;;;9.10;5.40;;;;;;;7.84;54.16;100757.63;231142;1228;139171;-59
2022/02/27 10:55:16;;;;;;;8.60;5.00;;;;;;;7.71;53.72;100753.35;231187;1228;138837;-60
2022/02/27 11:00:22;;;;;;;425.80;253.80;;;;;;;7.59;54.00;100746.38;231210;1228;138787;-56
2022/02/27 11:05:28;;;;;;;43.90;27.30;;;;;;;7.64;54.37;100742.38;231158;1228;139685;-61
2022/02/27 11:10:40;;;;;;;12.00;7.30;;;;;;;7.72;54.04;100737.41;231194;1228;139304;-61
2022/02/27 11:15:43;;;;;;;14.70;8.70;;;;;;;7.85;54.06;100721.39;231290;1228;139195;-60
2022/02/27 11:20:48;;;;;;;7.70;3.80;;;;;;;8.21;53.73;100717.50;231218;1227;138471;-60
2022/02/27 11:25:52;;;;;;;83.60;58.10;;;;;;;8.52;53.72;100711.61;231043;1229;140946;-59
2022/02/27 11:31:01;;;;;;;29.30;15.90;;;;;;;8.66;53.52;100708.92;231289;1228;139231;-60
2022/02/27 11:36:19;;;;;;;17.10;7.50;;;;;;;8.68;52.34;100706.92;231286;1227;140050;-59
2022/02/27 11:41:22;;;;;;;10.00;4.70;;;;;;;8.78;51.91;100698.88;231279;1228;138814;-60
2022/02/27 11:46:39;;;;;;;8.10;4.10;;;;;;;8.76;51.81;100700.16;231237;1228;140396;-59
2022/02/27 11:51:46;;;;;;;10.30;4.40;;;;;;;8.73;51.41;100693.16;231349;1228;139042;-59
2022/02/27 11:57:01;;;;;;;8.80;4.20;;;;;;;8.73;51.25;100688.58;231155;1230;138733;-59
2022/02/27 12:02:04;;;;;;;7.70;4.70;;;;;;;8.72;51.17;100676.39;231346;1228;139204;-59
2022/02/27 12:07:09;;;;;;;6.70;4.20;;;;;;;8.68;50.66;100664.63;231217;1229;140222;-59
2022/02/27 12:12:51;;;;;;;5.40;3.40;;;;;;;8.60;50.46;100666.65;231270;1228;139128;-58
2022/02/27 12:18:21;;;;;;;10.30;6.10;;;;;;;9.59;57.17;100661.83;231175;1229;138869;-57
2022/02/27 12:23:27;;;;;;;7.10;3.00;;;;;;;12.31;58.32;100645.88;231216;1228;138831;-58
2022/02/27 12:28:47;;;;;;;;;;;;;;;12.54;50.94;100642.73;231292;1228;139766;-58
2022/02/27 12:33:51;;;;;;;7.40;3.90;;;;;;;11.71;48.68;100653.00;231394;1228;125206;-59
2022/02/27 12:38:59;;;;;;;9.30;4.60;;;;;;;10.90;48.25;100653.14;231230;1228;139487;-58
2022/02/27 12:44:05;;;;;;;12.50;5.40;;;;;;;10.17;47.98;100652.39;231226;1228;138972;-59
2022/02/27 12:54:34;;;;;;;9.30;5.90;;;;;;;9.12;48.62;100657.17;231192;1230;139658;-62
2022/02/27 12:59:43;;;;;;;46.70;31.10;;;;;;;8.73;48.90;100655.46;231219;1228;139014;-59
2022/02/27 13:04:47;;;;;;;144.90;80.90;;;;;;;8.56;49.74;100651.88;231324;1228;139193;-62
2022/02/27 13:09:52;;;;;;;15.10;8.20;;;;;;;8.47;49.62;100652.30;230951;1228;139558;-62
2022/02/27 13:14:58;;;;;;;17.90;6.20;;;;;;;8.33;49.26;100651.98;231200;1229;139328;-63
2022/02/27 13:20:06;;;;;;;7.60;4.10;;;;;;;8.19;49.37;100648.07;231249;1230;139408;-64
2022/02/27 13:25:12;;;;;;;11.20;3.90;;;;;;;8.07;49.17;100648.75;231152;1228;139267;-65
2022/02/27 13:30:25;;;;;;;29.80;17.10;;;;;;;8.02;50.28;100649.41;231145;1230;140615;-64
2022/02/27 13:35:38;;;;;;;7.90;4.70;;;;;;;8.00;49.90;100652.12;231195;1229;138994;-65
2022/02/27 13:40:44;;;;;;;8.40;5.10;;;;;;;7.96;49.61;100647.27;231209;1229;139622;-65
2022/02/27 13:45:51;;;;;;;;;;;;;;;7.90;49.75;100645.13;231374;1230;138897;-64
2022/02/27 13:50:55;;;;;;;21.20;9.00;;;;;;;7.91;50.60;100639.61;231283;1228;125049;-65
2022/02/27 13:56:10;;;;;;;12.90;7.70;;;;;;;7.87;50.25;100632.83;231208;1229;138829;-66
2022/02/27 14:01:19;;;;;;;13.80;7.50;;;;;;;7.81;50.65;100630.14;231176;1229;140902;-66
2022/02/27 14:06:32;;;;;;;11.80;5.70;;;;;;;7.90;51.92;100628.67;231180;1230;139542;-66
2022/02/27 14:11:35;;;;;;;11.60;5.60;;;;;;;8.07;50.92;100624.69;231181;1229;138919;-65
2022/02/27 14:16:43;;;;;;;10.10;5.40;;;;;;;7.99;50.48;100619.60;231255;1229;138863;-64
2022/02/27 14:21:46;;;;;;;8.10;4.30;;;;;;;7.93;50.01;100615.00;231304;1229;140576;-64
2022/02/27 14:26:59;;;;;;;273.50;210.70;;;;;;;7.89;50.57;100617.77;231065;1230;139779;-62
2022/02/27 14:32:21;;;;;;;33.40;18.60;;;;;;;7.97;51.04;100619.48;231141;1230;139831;-63
2022/02/27 14:37:27;;;;;;;13.00;7.40;;;;;;;7.97;50.45;100619.30;231177;1229;139229;-61
2022/02/27 14:42:30;;;;;;;10.00;5.70;;;;;;;7.88;50.55;100619.71;231186;1229;139136;-64
2022/02/27 14:47:34;;;;;;;11.30;5.70;;;;;;;7.82;50.63;100618.98;231223;1230;140474;-63
2022/02/27 14:52:37;;;;;;;9.80;4.70;;;;;;;7.73;49.99;100619.74;231156;1229;139643;-63
2022/02/27 14:57:40;;;;;;;10.00;4.20;;;;;;;7.64;49.17;100619.25;231078;1229;138263;-63
2022/02/27 15:02:43;;;;;;;10.00;4.60;;;;;;;7.56;49.03;100625.82;231205;1229;139095;-63
2022/02/27 15:07:46;;;;;;;111.30;80.90;;;;;;;7.48;49.30;100624.77;231154;1230;140086;-63
2022/02/27 15:12:49;;;;;;;18.30;9.50;;;;;;;7.48;49.81;100624.95;231169;1230;140231;-63
2022/02/27 15:17:52;;;;;;;15.90;6.80;;;;;;;7.48;49.51;100620.88;231237;1230;138694;-63
2022/02/27 15:22:57;;;;;;;19.60;8.70;;;;;;;7.43;49.42;100620.64;231136;1229;139408;-66
2022/02/27 15:28:00;;;;;;;14.90;8.50;;;;;;;7.34;49.56;100619.63;231123;1229;139783;-66
2022/02/27 15:33:04;;;;;;;77.90;41.00;;;;;;;7.27;49.73;100613.42;231306;1229;139012;-62
2022/02/27 15:38:07;;;;;;;19.60;10.40;;;;;;;7.21;49.97;100620.81;231225;1230;138920;-64
2022/02/27 15:43:10;;;;;;;27.10;16.20;;;;;;;7.16;50.34;100622.85;231206;1228;139560;-63
2022/02/27 15:48:13;;;;;;;30.50;18.20;;;;;;;7.91;56.54;100620.82;231197;1229;139591;-64
2022/02/27 15:53:16;;;;;;;30.70;15.80;;;;;;;9.89;57.08;100613.76;231188;1228;140169;-63
2022/02/27 15:58:19;;;;;;;26.50;14.60;;;;;;;10.22;52.46;100612.66;231129;1229;139782;-65
2022/02/27 16:03:23;;;;;;;24.20;14.40;;;;;;;9.55;50.64;100618.09;231214;1228;161968;-63
2022/02/27 16:08:26;;;;;;;25.80;13.80;;;;;;;8.91;50.71;100628.59;231214;1229;139800;-61
2022/02/27 16:13:29;;;;;;;18.40;11.00;;;;;;;8.45;50.78;100629.55;231124;1230;139193;-62
2022/02/27 16:18:32;;;;;;;20.40;11.00;;;;;;;8.02;51.02;100635.08;231262;1228;139661;-62
2022/02/27 16:23:35;;;;;;;251.70;154.60;;;;;;;7.63;51.88;100648.06;231167;1229;139224;-61
2022/02/27 16:28:38;;;;;;;24.50;14.10;;;;;;;7.26;52.07;100656.70;231205;1229;141025;-63
2022/02/27 16:33:45;;;;;;;129.30;55.50;;;;;;;6.89;52.13;100665.27;231225;1229;139167;-64
2022/02/27 16:38:48;;;;;;;27.30;14.30;;;;;;;6.64;52.15;100671.43;231152;1229;139578;-65
2022/02/27 16:43:51;;;;;;;19.80;11.60;;;;;;;6.36;52.69;100670.54;231100;1230;139487;-64
2022/02/27 16:48:54;;;;;;;19.90;10.90;;;;;;;6.16;52.96;100675.48;231154;1229;139259;-63
2022/02/27 16:53:58;;;;;;;21.90;11.20;;;;;;;5.98;53.14;100671.03;231115;1229;139173;-64
2022/02/27 16:59:03;;;;;;;18.80;11.00;;;;;;;5.71;53.01;100678.14;230971;1230;139683;-67
2022/02/27 17:04:12;;;;;;;17.80;10.40;;;;;;;5.53;53.37;100682.65;231095;1228;140149;-65
2022/02/27 17:09:15;;;;;;;17.80;10.30;;;;;;;5.38;53.41;100681.09;231216;1229;139019;-64
2022/02/27 17:14:28;;;;;;;20.30;9.60;;;;;;;5.27;53.59;100676.34;231015;1229;139603;-64
2022/02/27 17:19:32;;;;;;;16.30;9.00;;;;;;;5.17;53.62;100676.82;231163;1229;138888;-64
2022/02/27 17:24:36;;;;;;;18.50;10.00;;;;;;;5.06;53.65;100679.43;230986;1229;139197;-64
2022/02/27 17:29:39;;;;;;;17.80;9.30;;;;;;;4.97;54.05;100677.44;231084;1229;138924;-65
2022/02/27 17:34:42;;;;;;;18.30;9.40;;;;;;;4.87;54.09;100673.00;231109;1229;138834;-65
2022/02/27 17:39:45;;;;;;;19.90;9.80;;;;;;;4.79;54.21;100671.67;231263;1229;138939;-64
2022/02/27 17:44:48;;;;;;;15.40;8.20;;;;;;;4.73;54.37;100670.35;230926;1229;138921;-67
2022/02/27 17:49:52;;;;;;;13.10;7.30;;;;;;;4.65;54.26;100678.69;231115;1228;139399;-66
2022/02/27 17:54:55;;;;;;;18.00;11.50;;;;;;;4.69;55.45;100684.27;231061;1228;140374;-67
2022/02/27 17:59:58;;;;;;;14.90;8.70;;;;;;;4.72;54.58;100680.88;230937;1228;139719;-65
2022/02/27 18:05:02;;;;;;;12.20;6.80;;;;;;;4.52;54.20;100683.41;231066;1227;139428;-65
2022/02/27 18:10:06;;;;;;;9.90;6.00;;;;;;;4.35;54.25;100690.27;231185;1227;139307;-65
2022/02/27 18:15:15;;;;;;;11.10;6.10;;;;;;;4.19;54.30;100686.39;231235;1227;139742;-64
2022/02/27 18:20:23;;;;;;;12.30;6.40;;;;;;;4.10;54.35;100677.34;231177;1228;139718;-64
2022/02/27 18:25:27;;;;;;;;;;;;;;;4.03;54.45;100678.09;231159;1228;139248;-64
2022/02/27 18:30:33;;;;;;;14.90;7.60;;;;;;;3.98;54.53;100680.25;231347;1228;125873;-64
2022/02/27 18:35:36;;;;;;;12.80;7.10;;;;;;;3.96;54.80;100679.03;231157;1228;139740;-64
2022/02/27 18:40:40;;;;;;;16.60;8.40;;;;;;;3.93;54.88;100677.29;231213;1228;140087;-62
2022/02/27 18:45:43;;;;;;;16.50;8.60;;;;;;;3.91;54.94;100669.08;231146;1227;139205;-63
2022/02/27 18:50:46;;;;;;;16.40;8.90;;;;;;;3.90;55.24;100672.24;231244;1228;140236;-66
2022/02/27 18:55:49;;;;;;;16.20;8.60;;;;;;;3.84;55.29;100665.98;231184;1228;140211;-64
2022/02/27 19:00:52;;;;;;;133.30;75.30;;;;;;;3.80;55.42;100663.02;231298;1228;139314;-66
2022/02/27 19:05:58;;;;;;;31.30;15.90;;;;;;;3.86;55.78;100670.16;231143;1228;140279;-64
2022/02/27 19:11:02;;;;;;;;;;;;;;;3.81;55.71;100675.66;231253;1228;139869;-65
2022/02/27 19:16:07;;;;;;;17.60;10.30;;;;;;;3.72;55.68;100675.71;231255;1228;126218;-65
2022/02/27 19:21:10;;;;;;;21.90;11.50;;;;;;;3.64;55.71;100674.90;231319;1227;140078;-64
2022/02/27 19:26:13;;;;;;;17.10;9.50;;;;;;;3.59;55.91;100673.89;231132;1227;139678;-65
2022/02/27 19:31:16;;;;;;;17.30;9.80;;;;;;;3.55;56.11;100676.20;231204;1228;140205;-66
2022/02/27 19:36:20;;;;;;;20.60;10.40;;;;;;;3.50;56.21;100676.41;231220;1227;139775;-64
2022/02/27 19:41:23;;;;;;;19.60;9.80;;;;;;;3.46;56.21;100672.05;231229;1227;139759;-63
2022/02/27 19:46:27;;;;;;;16.40;9.60;;;;;;;3.42;56.11;100664.70;231148;1228;139272;-61
2022/02/27 19:51:30;;;;;;;31.90;18.50;;;;;;;3.41;56.58;100662.08;231265;1226;139132;-60
2022/02/27 19:56:33;;;;;;;265.30;146.70;;;;;;;3.46;56.72;100658.02;231236;1228;140227;-59
2022/02/27 20:01:36;;;;;;;34.50;16.60;;;;;;;3.52;56.74;100663.93;231346;1227;140250;-64
2022/02/27 20:06:40;;;;;;;18.80;10.90;;;;;;;3.50;56.58;100657.45;231174;1226;140401;-66
2022/02/27 20:11:43;;;;;;;18.80;10.80;;;;;;;3.41;56.31;100654.89;231275;1227;139805;-66
2022/02/27 20:16:46;;;;;;;17.80;10.70;;;;;;;3.32;56.45;100658.11;231170;1227;140040;-65
2022/02/27 20:21:49;;;;;;;22.90;10.50;;;;;;;3.29;56.88;100653.21;231371;1228;138806;-64
2022/02/27 20:26:52;;;;;;;21.80;11.20;;;;;;;3.29;57.01;100650.94;231034;1228;139803;-65
2022/02/27 20:31:55;;;;;;;25.10;11.60;;;;;;;3.28;57.13;100651.65;231237;1228;139608;-63
2022/02/27 20:37:01;;;;;;;;;;;;;;;3.27;57.13;100649.90;231120;1228;141084;-65
2022/02/27 20:42:04;;;;;;;21.90;11.50;;;;;;;3.25;57.13;100644.98;231298;1227;125572;-66
2022/02/27 20:47:08;;;;;;;20.70;12.40;;;;;;;3.22;57.18;100641.33;231199;1228;138891;-64
2022/02/27 20:52:11;;;;;;;55.80;31.00;;;;;;;3.22;57.36;100635.71;231288;1226;139119;-66
2022/02/27 20:57:14;;;;;;;27.70;14.20;;;;;;;3.33;57.50;100629.50;231321;1228;139196;-67
2022/02/27 21:02:19;;;;;;;22.70;12.80;;;;;;;3.32;57.24;100628.81;231237;1228;139128;-67
2022/02/27 21:07:22;;;;;;;21.30;12.00;;;;;;;3.27;57.24;100622.18;231302;1228;139421;-64
2022/02/27 21:12:25;;;;;;;20.70;12.00;;;;;;;3.22;57.37;100625.37;231427;1227;138974;-66
2022/02/27 21:17:28;;;;;;;22.80;12.80;;;;;;;3.16;57.45;100628.39;231228;1226;138987;-63
2022/02/27 21:22:32;;;;;;;21.90;11.90;;;;;;;3.10;57.56;100627.71;231234;1228;139622;-63
2022/02/27 21:27:35;;;;;;;26.10;13.60;;;;;;;3.06;57.58;100620.74;231363;1228;138967;-66
2022/02/27 21:32:39;;;;;;;25.70;14.60;;;;;;;3.04;57.73;100620.73;231267;1227;140717;-64
2022/02/27 21:37:43;;;;;;;25.70;13.40;;;;;;;3.00;57.92;100619.02;231221;1228;138797;-68
2022/02/27 21:42:47;;;;;;;26.40;13.60;;;;;;;2.95;57.71;100615.19;231254;1227;139559;-64
2022/02/27 21:47:51;;;;;;;27.30;13.90;;;;;;;2.91;57.78;100613.80;231190;1228;139005;-66
2022/02/27 21:52:54;;;;;;;24.30;14.10;;;;;;;2.88;58.03;100610.84;231326;1228;138799;-66
2022/02/27 21:57:57;;;;;;;24.80;14.00;;;;;;;2.88;58.07;100611.72;231333;1227;139177;-66
2022/02/27 22:03:01;;;;;;;23.70;13.50;;;;;;;2.89;58.31;100610.65;231357;1228;138933;-67
2022/02/27 22:08:05;;;;;;;24.20;13.30;;;;;;;2.89;58.19;100606.63;231238;1227;139313;-65
2022/02/27 22:13:08;;;;;;;25.00;13.40;;;;;;;2.89;58.16;100605.05;231340;1227;138920;-63
2022/02/27 22:18:13;;;;;;;24.00;13.50;;;;;;;2.89;58.26;100604.19;231228;1227;139574;-64
2022/02/27 22:23:17;;;;;;;23.20;13.40;;;;;;;2.86;58.08;100598.94;231279;1227;139083;-62
2022/02/27 22:28:21;;;;;;;23.00;13.40;;;;;;;2.83;58.14;100598.77;231250;1227;138793;-67
2022/02/27 22:33:24;;;;;;;25.50;14.00;;;;;;;2.82;58.14;100595.99;231364;1227;141980;-69
2022/02/27 22:38:27;;;;;;;23.30;13.10;;;;;;;2.81;58.34;100584.95;231273;1228;139174;-68
2022/02/27 22:43:31;;;;;;;24.90;13.10;;;;;;;2.80;58.17;100584.78;231243;1228;140296;-67
2022/02/27 22:48:34;;;;;;;25.70;13.40;;;;;;;2.77;57.92;100583.02;231159;1228;140133;-62
2022/02/27 22:53:37;;;;;;;25.20;13.80;;;;;;;2.72;58.08;100580.27;231297;1225;139422;-64
2022/02/27 22:58:42;;;;;;;22.70;13.50;;;;;;;2.69;58.16;100575.73;231281;1228;139310;-66